sensor_id;sensor_type;location;lat;lon;timestamp;P1;durP1;ratioP1;P2;durP2;ratioP2
69369;SDS011;56530;42.640;23.372;2022-08-19T00:01:24;6.85;;;5.57;;
69369;SDS011;56530;42.640;23.372;2022-08-19T00:03:51;5.53;;;5.03;;
69369;SDS011;56530;42.640;23.372;2022-08-19T00:06:16;5.00;;;4.47;;
69369;SDS011;56530;42.640;23.372;2022-08-19T00:08:42;6.28;;;4.45;;
69369;SDS011;56530;42.640;23.372;2022-08-19T00:11:08;6.03;;;5.50;;
69369;SDS011;56530;42.640;23.372;2022-08-19T00:13:34;5.65;;;4.35;;
69369;SDS011;56530;42.640;23.372;2022-08-19T00:15:59;5.10;;;4.70;;
69369;SDS011;56530;42.640;23.372;2022-08-19T00:18:25;6.60;;;5.28;;
69369;SDS011;56530;42.640;23.372;2022-08-19T00:20:51;5.45;;;4.95;;
69369;SDS011;56530;42.640;23.372;2022-08-19T00:23:17;4.95;;;4.55;;
69369;SDS011;56530;42.640;23.372;2022-08-19T00:25:43;6.55;;;4.60;;
69369;SDS011;56530;42.640;23.372;2022-08-19T00:28:09;6.18;;;5.22;;
69369;SDS011;56530;42.640;23.372;2022-08-19T00:30:34;8.80;;;4.95;;
69369;SDS011;56530;42.640;23.372;2022-08-19T00:33:00;6.13;;;4.53;;
69369;SDS011;56530;42.640;23.372;2022-08-19T00:35:25;5.38;;;4.97;;
69369;SDS011;56530;42.640;23.372;2022-08-19T00:37:52;7.50;;;5.40;;
69369;SDS011;56530;42.640;23.372;2022-08-19T00:40:18;5.38;;;4.95;;
69369;SDS011;56530;42.640;23.372;2022-08-19T00:42:44;6.15;;;5.40;;
69369;SDS011;56530;42.640;23.372;2022-08-19T00:45:17;6.25;;;5.40;;
69369;SDS011;56530;42.640;23.372;2022-08-19T00:47:49;6.60;;;5.15;;
69369;SDS011;56530;42.640;23.372;2022-08-19T00:50:15;5.70;;;5.20;;
69369;SDS011;56530;42.640;23.372;2022-08-19T00:52:43;4.75;;;4.35;;
69369;SDS011;56530;42.640;23.372;2022-08-19T00:55:13;6.40;;;5.63;;
69369;SDS011;56530;42.640;23.372;2022-08-19T00:57:44;6.47;;;5.32;;
69369;SDS011;56530;42.640;23.372;2022-08-19T01:00:14;6.45;;;5.30;;
69369;SDS011;56530;42.640;23.372;2022-08-19T01:02:41;7.72;;;4.95;;
69369;SDS011;56530;42.640;23.372;2022-08-19T01:05:08;5.22;;;4.78;;
69369;SDS011;56530;42.640;23.372;2022-08-19T01:07:36;7.07;;;5.63;;
69369;SDS011;56530;42.640;23.372;2022-08-19T01:10:03;5.28;;;4.70;;
69369;SDS011;56530;42.640;23.372;2022-08-19T01:12:34;5.95;;;5.28;;
69369;SDS011;56530;42.640;23.372;2022-08-19T01:15:00;5.90;;;5.35;;
69369;SDS011;56530;42.640;23.372;2022-08-19T01:17:25;6.38;;;4.97;;
69369;SDS011;56530;42.640;23.372;2022-08-19T01:19:51;6.55;;;5.03;;
69369;SDS011;56530;42.640;23.372;2022-08-19T01:24:48;6.07;;;5.53;;
69369;SDS011;56530;42.640;23.372;2022-08-19T01:27:14;6.80;;;5.05;;
69369;SDS011;56530;42.640;23.372;2022-08-19T01:29:41;6.78;;;6.18;;
69369;SDS011;56530;42.640;23.372;2022-08-19T01:32:12;8.38;;;5.43;;
69369;SDS011;56530;42.640;23.372;2022-08-19T01:34:39;9.57;;;5.90;;
69369;SDS011;56530;42.640;23.372;2022-08-19T01:37:06;5.57;;;5.07;;
69369;SDS011;56530;42.640;23.372;2022-08-19T01:39:33;5.90;;;5.50;;
69369;SDS011;56530;42.640;23.372;2022-08-19T01:41:59;5.65;;;5.15;;
69369;SDS011;56530;42.640;23.372;2022-08-19T01:44:28;11.73;;;5.93;;
69369;SDS011;56530;42.640;23.372;2022-08-19T01:46:53;5.45;;;4.95;;
69369;SDS011;56530;42.640;23.372;2022-08-19T01:49:20;6.00;;;5.50;;
69369;SDS011;56530;42.640;23.372;2022-08-19T01:51:48;5.90;;;5.43;;
69369;SDS011;56530;42.640;23.372;2022-08-19T01:54:15;5.43;;;5.03;;
69369;SDS011;56530;42.640;23.372;2022-08-19T01:56:41;5.85;;;5.35;;
69369;SDS011;56530;42.640;23.372;2022-08-19T01:59:12;5.07;;;4.75;;
69369;SDS011;56530;42.640;23.372;2022-08-19T02:01:40;5.95;;;5.40;;
69369;SDS011;56530;42.640;23.372;2022-08-19T02:04:05;6.03;;;5.45;;
69369;SDS011;56530;42.640;23.372;2022-08-19T02:06:31;5.20;;;4.80;;
69369;SDS011;56530;42.640;23.372;2022-08-19T02:08:58;6.63;;;4.55;;
69369;SDS011;56530;42.640;23.372;2022-08-19T02:11:25;7.28;;;5.88;;
69369;SDS011;56530;42.640;23.372;2022-08-19T02:13:56;5.70;;;5.22;;
69369;SDS011;56530;42.640;23.372;2022-08-19T02:16:22;6.05;;;5.13;;
69369;SDS011;56530;42.640;23.372;2022-08-19T02:18:48;6.55;;;5.18;;
69369;SDS011;56530;42.640;23.372;2022-08-19T02:21:14;7.30;;;5.35;;
69369;SDS011;56530;42.640;23.372;2022-08-19T02:23:41;4.93;;;4.43;;
69369;SDS011;56530;42.640;23.372;2022-08-19T02:26:07;7.22;;;5.05;;
69369;SDS011;56530;42.640;23.372;2022-08-19T02:28:32;5.35;;;4.90;;
69369;SDS011;56530;42.640;23.372;2022-08-19T02:30:58;6.57;;;5.03;;
69369;SDS011;56530;42.640;23.372;2022-08-19T02:33:25;5.57;;;5.10;;
69369;SDS011;56530;42.640;23.372;2022-08-19T02:35:51;9.52;;;5.90;;
69369;SDS011;56530;42.640;23.372;2022-08-19T02:38:17;5.93;;;5.35;;
69369;SDS011;56530;42.640;23.372;2022-08-19T02:40:56;10.65;;;6.20;;
69369;SDS011;56530;42.640;23.372;2022-08-19T02:43:23;7.10;;;5.72;;
69369;SDS011;56530;42.640;23.372;2022-08-19T02:45:50;13.93;;;6.55;;
69369;SDS011;56530;42.640;23.372;2022-08-19T02:48:20;9.90;;;5.93;;
69369;SDS011;56530;42.640;23.372;2022-08-19T02:50:47;6.70;;;5.93;;
69369;SDS011;56530;42.640;23.372;2022-08-19T02:53:17;9.45;;;6.95;;
69369;SDS011;56530;42.640;23.372;2022-08-19T02:55:44;9.60;;;6.43;;
69369;SDS011;56530;42.640;23.372;2022-08-19T02:58:11;8.50;;;6.05;;
69369;SDS011;56530;42.640;23.372;2022-08-19T03:00:41;13.55;;;6.00;;
69369;SDS011;56530;42.640;23.372;2022-08-19T03:03:07;7.53;;;5.57;;
69369;SDS011;56530;42.640;23.372;2022-08-19T03:05:33;6.05;;;5.50;;
69369;SDS011;56530;42.640;23.372;2022-08-19T03:07:59;6.55;;;5.70;;
69369;SDS011;56530;42.640;23.372;2022-08-19T03:10:24;6.72;;;6.05;;
69369;SDS011;56530;42.640;23.372;2022-08-19T03:12:49;6.00;;;5.50;;
69369;SDS011;56530;42.640;23.372;2022-08-19T03:15:15;6.13;;;5.50;;
69369;SDS011;56530;42.640;23.372;2022-08-19T03:17:40;6.28;;;5.57;;
69369;SDS011;56530;42.640;23.372;2022-08-19T03:20:06;8.35;;;5.53;;
69369;SDS011;56530;42.640;23.372;2022-08-19T03:22:32;6.18;;;5.45;;
69369;SDS011;56530;42.640;23.372;2022-08-19T03:24:57;6.13;;;5.60;;
69369;SDS011;56530;42.640;23.372;2022-08-19T03:27:24;6.10;;;5.53;;
69369;SDS011;56530;42.640;23.372;2022-08-19T03:29:49;6.13;;;5.60;;
69369;SDS011;56530;42.640;23.372;2022-08-19T03:32:15;6.78;;;6.10;;
69369;SDS011;56530;42.640;23.372;2022-08-19T03:34:41;8.65;;;5.78;;
69369;SDS011;56530;42.640;23.372;2022-08-19T03:37:08;9.70;;;5.88;;
69369;SDS011;56530;42.640;23.372;2022-08-19T03:39:36;6.40;;;5.80;;
69369;SDS011;56530;42.640;23.372;2022-08-19T03:42:03;8.35;;;5.40;;
69369;SDS011;56530;42.640;23.372;2022-08-19T03:44:29;8.85;;;6.00;;
69369;SDS011;56530;42.640;23.372;2022-08-19T03:46:57;11.68;;;5.85;;
69369;SDS011;56530;42.640;23.372;2022-08-19T03:49:24;7.00;;;6.28;;
69369;SDS011;56530;42.640;23.372;2022-08-19T03:51:52;7.38;;;5.30;;
69369;SDS011;56530;42.640;23.372;2022-08-19T03:54:19;6.93;;;6.07;;
69369;SDS011;56530;42.640;23.372;2022-08-19T03:56:46;6.57;;;5.78;;
69369;SDS011;56530;42.640;23.372;2022-08-19T03:59:16;7.20;;;6.40;;
69369;SDS011;56530;42.640;23.372;2022-08-19T04:01:45;10.55;;;7.30;;
69369;SDS011;56530;42.640;23.372;2022-08-19T04:04:11;7.60;;;5.88;;
69369;SDS011;56530;42.640;23.372;2022-08-19T04:06:37;7.38;;;6.53;;
69369;SDS011;56530;42.640;23.372;2022-08-19T04:09:04;7.65;;;6.45;;
69369;SDS011;56530;42.640;23.372;2022-08-19T04:11:33;6.18;;;5.05;;
69369;SDS011;56530;42.640;23.372;2022-08-19T04:14:00;10.35;;;5.88;;
69369;SDS011;56530;42.640;23.372;2022-08-19T04:16:26;10.20;;;5.95;;
69369;SDS011;56530;42.640;23.372;2022-08-19T04:18:55;9.48;;;5.75;;
69369;SDS011;56530;42.640;23.372;2022-08-19T04:21:23;7.10;;;5.45;;
69369;SDS011;56530;42.640;23.372;2022-08-19T04:23:49;7.22;;;5.68;;
69369;SDS011;56530;42.640;23.372;2022-08-19T04:26:16;9.50;;;5.88;;
69369;SDS011;56530;42.640;23.372;2022-08-19T04:28:43;13.63;;;6.43;;
69369;SDS011;56530;42.640;23.372;2022-08-19T04:31:13;9.55;;;5.80;;
69369;SDS011;56530;42.640;23.372;2022-08-19T04:33:43;10.95;;;5.70;;
69369;SDS011;56530;42.640;23.372;2022-08-19T04:36:16;8.25;;;5.97;;
69369;SDS011;56530;42.640;23.372;2022-08-19T04:38:46;8.93;;;5.75;;
69369;SDS011;56530;42.640;23.372;2022-08-19T04:41:12;8.57;;;5.10;;
69369;SDS011;56530;42.640;23.372;2022-08-19T04:43:56;6.75;;;5.97;;
69369;SDS011;56530;42.640;23.372;2022-08-19T04:46:22;5.90;;;5.38;;
69369;SDS011;56530;42.640;23.372;2022-08-19T04:48:47;8.35;;;5.97;;
69369;SDS011;56530;42.640;23.372;2022-08-19T04:51:13;6.75;;;5.82;;
69369;SDS011;56530;42.640;23.372;2022-08-19T04:53:39;10.82;;;5.43;;
69369;SDS011;56530;42.640;23.372;2022-08-19T04:56:07;7.85;;;6.60;;
69369;SDS011;56530;42.640;23.372;2022-08-19T04:58:37;9.13;;;5.80;;
69369;SDS011;56530;42.640;23.372;2022-08-19T05:01:03;8.63;;;5.82;;
69369;SDS011;56530;42.640;23.372;2022-08-19T05:03:29;7.00;;;6.10;;
69369;SDS011;56530;42.640;23.372;2022-08-19T05:05:58;8.40;;;6.00;;
69369;SDS011;56530;42.640;23.372;2022-08-19T05:08:23;8.85;;;5.70;;
69369;SDS011;56530;42.640;23.372;2022-08-19T05:10:50;6.57;;;5.85;;
69369;SDS011;56530;42.640;23.372;2022-08-19T05:13:17;8.70;;;6.93;;
69369;SDS011;56530;42.640;23.372;2022-08-19T05:15:43;9.13;;;6.10;;
69369;SDS011;56530;42.640;23.372;2022-08-19T05:18:10;8.60;;;6.20;;
69369;SDS011;56530;42.640;23.372;2022-08-19T05:20:54;7.35;;;6.13;;
69369;SDS011;56530;42.640;23.372;2022-08-19T05:23:38;11.07;;;6.80;;
69369;SDS011;56530;42.640;23.372;2022-08-19T05:26:04;10.70;;;6.70;;
69369;SDS011;56530;42.640;23.372;2022-08-19T05:28:30;9.40;;;6.55;;
69369;SDS011;56530;42.640;23.372;2022-08-19T05:30:55;10.95;;;6.88;;
69369;SDS011;56530;42.640;23.372;2022-08-19T05:33:21;9.55;;;6.57;;
69369;SDS011;56530;42.640;23.372;2022-08-19T05:35:47;7.93;;;6.95;;
69369;SDS011;56530;42.640;23.372;2022-08-19T05:38:14;12.10;;;7.32;;
69369;SDS011;56530;42.640;23.372;2022-08-19T05:40:41;7.00;;;6.32;;
69369;SDS011;56530;42.640;23.372;2022-08-19T05:43:10;6.40;;;5.90;;
69369;SDS011;56530;42.640;23.372;2022-08-19T05:45:40;8.45;;;5.90;;
69369;SDS011;56530;42.640;23.372;2022-08-19T05:48:06;6.78;;;6.18;;
69369;SDS011;56530;42.640;23.372;2022-08-19T05:50:32;10.55;;;8.82;;
69369;SDS011;56530;42.640;23.372;2022-08-19T05:52:58;14.45;;;13.07;;
69369;SDS011;56530;42.640;23.372;2022-08-19T05:55:23;15.75;;;6.82;;
69369;SDS011;56530;42.640;23.372;2022-08-19T05:57:49;8.75;;;6.38;;
69369;SDS011;56530;42.640;23.372;2022-08-19T06:00:14;7.43;;;6.45;;
69369;SDS011;56530;42.640;23.372;2022-08-19T06:02:40;9.45;;;6.35;;
69369;SDS011;56530;42.640;23.372;2022-08-19T06:05:06;8.45;;;6.68;;
69369;SDS011;56530;42.640;23.372;2022-08-19T06:07:34;7.43;;;6.35;;
69369;SDS011;56530;42.640;23.372;2022-08-19T06:10:00;8.35;;;7.53;;
69369;SDS011;56530;42.640;23.372;2022-08-19T06:12:27;7.82;;;6.97;;
69369;SDS011;56530;42.640;23.372;2022-08-19T06:14:53;10.77;;;7.43;;
69369;SDS011;56530;42.640;23.372;2022-08-19T06:17:19;8.77;;;6.85;;
69369;SDS011;56530;42.640;23.372;2022-08-19T06:19:49;7.88;;;7.10;;
69369;SDS011;56530;42.640;23.372;2022-08-19T06:22:15;7.78;;;6.93;;
69369;SDS011;56530;42.640;23.372;2022-08-19T06:24:41;9.05;;;7.18;;
69369;SDS011;56530;42.640;23.372;2022-08-19T06:27:06;8.70;;;6.05;;
69369;SDS011;56530;42.640;23.372;2022-08-19T06:29:32;6.32;;;5.03;;
69369;SDS011;56530;42.640;23.372;2022-08-19T06:31:59;8.25;;;6.22;;
69369;SDS011;56530;42.640;23.372;2022-08-19T06:34:28;6.95;;;6.07;;
69369;SDS011;56530;42.640;23.372;2022-08-19T06:36:56;7.15;;;6.10;;
69369;SDS011;56530;42.640;23.372;2022-08-19T06:39:26;10.93;;;5.72;;
69369;SDS011;56530;42.640;23.372;2022-08-19T06:41:55;6.00;;;5.38;;
69369;SDS011;56530;42.640;23.372;2022-08-19T06:44:23;7.20;;;5.57;;
69369;SDS011;56530;42.640;23.372;2022-08-19T06:46:50;7.50;;;6.03;;
69369;SDS011;56530;42.640;23.372;2022-08-19T06:49:16;7.82;;;6.47;;
69369;SDS011;56530;42.640;23.372;2022-08-19T06:51:43;10.68;;;6.25;;
69369;SDS011;56530;42.640;23.372;2022-08-19T06:54:09;8.57;;;6.38;;
69369;SDS011;56530;42.640;23.372;2022-08-19T06:56:36;8.35;;;6.57;;
69369;SDS011;56530;42.640;23.372;2022-08-19T06:59:10;10.27;;;6.18;;
69369;SDS011;56530;42.640;23.372;2022-08-19T07:01:38;9.88;;;6.72;;
69369;SDS011;56530;42.640;23.372;2022-08-19T07:04:06;7.63;;;6.60;;
69369;SDS011;56530;42.640;23.372;2022-08-19T07:06:33;12.50;;;6.53;;
69369;SDS011;56530;42.640;23.372;2022-08-19T07:08:59;10.10;;;7.03;;
69369;SDS011;56530;42.640;23.372;2022-08-19T07:11:25;11.25;;;6.60;;
69369;SDS011;56530;42.640;23.372;2022-08-19T07:13:51;9.98;;;6.72;;
69369;SDS011;56530;42.640;23.372;2022-08-19T07:16:17;9.57;;;7.05;;
69369;SDS011;56530;42.640;23.372;2022-08-19T07:18:47;14.63;;;5.30;;
69369;SDS011;56530;42.640;23.372;2022-08-19T07:21:18;8.05;;;5.90;;
69369;SDS011;56530;42.640;23.372;2022-08-19T07:23:46;10.77;;;6.75;;
69369;SDS011;56530;42.640;23.372;2022-08-19T07:26:14;8.70;;;6.28;;
69369;SDS011;56530;42.640;23.372;2022-08-19T07:28:41;11.48;;;5.85;;
69369;SDS011;56530;42.640;23.372;2022-08-19T07:31:10;10.35;;;6.40;;
69369;SDS011;56530;42.640;23.372;2022-08-19T07:33:37;12.15;;;5.88;;
69369;SDS011;56530;42.640;23.372;2022-08-19T07:36:06;12.25;;;6.90;;
69369;SDS011;56530;42.640;23.372;2022-08-19T07:38:33;15.93;;;6.32;;
69369;SDS011;56530;42.640;23.372;2022-08-19T07:40:59;8.20;;;6.00;;
69369;SDS011;56530;42.640;23.372;2022-08-19T07:43:25;13.55;;;7.15;;
69369;SDS011;56530;42.640;23.372;2022-08-19T07:45:52;9.43;;;6.60;;
69369;SDS011;56530;42.640;23.372;2022-08-19T07:48:21;14.63;;;7.07;;
69369;SDS011;56530;42.640;23.372;2022-08-19T07:50:50;6.63;;;5.72;;
69369;SDS011;56530;42.640;23.372;2022-08-19T07:53:20;8.15;;;5.78;;
69369;SDS011;56530;42.640;23.372;2022-08-19T07:55:49;6.55;;;5.80;;
69369;SDS011;56530;42.640;23.372;2022-08-19T07:58:16;14.15;;;7.50;;
69369;SDS011;56530;42.640;23.372;2022-08-19T08:00:44;13.73;;;5.95;;
69369;SDS011;56530;42.640;23.372;2022-08-19T08:03:11;6.70;;;5.38;;
69369;SDS011;56530;42.640;23.372;2022-08-19T08:05:36;7.85;;;6.55;;
69369;SDS011;56530;42.640;23.372;2022-08-19T08:08:20;11.15;;;6.78;;
69369;SDS011;56530;42.640;23.372;2022-08-19T08:11:06;8.02;;;6.35;;
69369;SDS011;56530;42.640;23.372;2022-08-19T08:13:32;10.93;;;6.32;;
69369;SDS011;56530;42.640;23.372;2022-08-19T08:16:00;9.63;;;6.28;;
69369;SDS011;56530;42.640;23.372;2022-08-19T08:18:26;10.02;;;6.38;;
69369;SDS011;56530;42.640;23.372;2022-08-19T08:20:52;7.45;;;6.03;;
69369;SDS011;56530;42.640;23.372;2022-08-19T08:23:18;6.03;;;5.45;;
69369;SDS011;56530;42.640;23.372;2022-08-19T08:25:55;10.05;;;6.68;;
69369;SDS011;56530;42.640;23.372;2022-08-19T08:28:21;9.18;;;6.70;;
69369;SDS011;56530;42.640;23.372;2022-08-19T08:30:48;10.15;;;6.25;;
69369;SDS011;56530;42.640;23.372;2022-08-19T08:33:17;8.68;;;7.25;;
69369;SDS011;56530;42.640;23.372;2022-08-19T08:35:44;9.43;;;7.25;;
69369;SDS011;56530;42.640;23.372;2022-08-19T08:38:10;15.05;;;6.82;;
69369;SDS011;56530;42.640;23.372;2022-08-19T08:43:29;11.82;;;7.32;;
69369;SDS011;56530;42.640;23.372;2022-08-19T08:46:05;9.95;;;5.60;;
69369;SDS011;56530;42.640;23.372;2022-08-19T08:51:07;8.82;;;5.20;;
69369;SDS011;56530;42.640;23.372;2022-08-19T08:53:35;8.32;;;6.03;;
69369;SDS011;56530;42.640;23.372;2022-08-19T08:56:02;12.20;;;6.57;;
69369;SDS011;56530;42.640;23.372;2022-08-19T08:58:31;12.63;;;6.10;;
69369;SDS011;56530;42.640;23.372;2022-08-19T09:01:08;7.60;;;5.30;;
69369;SDS011;56530;42.640;23.372;2022-08-19T09:03:37;7.75;;;5.07;;
69369;SDS011;56530;42.640;23.372;2022-08-19T09:09:32;11.35;;;4.88;;
69369;SDS011;56530;42.640;23.372;2022-08-19T09:14:53;5.68;;;4.60;;
69369;SDS011;56530;42.640;23.372;2022-08-19T09:17:23;9.00;;;4.65;;
69369;SDS011;56530;42.640;23.372;2022-08-19T09:22:36;4.85;;;4.47;;
69369;SDS011;56530;42.640;23.372;2022-08-19T09:25:03;4.75;;;4.35;;
69369;SDS011;56530;42.640;23.372;2022-08-19T09:27:29;6.72;;;4.97;;
69369;SDS011;56530;42.640;23.372;2022-08-19T09:29:57;4.57;;;3.58;;
69369;SDS011;56530;42.640;23.372;2022-08-19T09:32:22;4.82;;;4.00;;
69369;SDS011;56530;42.640;23.372;2022-08-19T09:34:49;7.43;;;3.97;;
69369;SDS011;56530;42.640;23.372;2022-08-19T09:37:14;5.30;;;4.38;;
69369;SDS011;56530;42.640;23.372;2022-08-19T09:39:40;5.13;;;4.55;;
69369;SDS011;56530;42.640;23.372;2022-08-19T09:42:07;8.95;;;4.70;;
69369;SDS011;56530;42.640;23.372;2022-08-19T09:44:39;6.40;;;4.60;;
69369;SDS011;56530;42.640;23.372;2022-08-19T09:47:05;9.25;;;3.95;;
69369;SDS011;56530;42.640;23.372;2022-08-19T09:49:31;7.97;;;4.38;;
69369;SDS011;56530;42.640;23.372;2022-08-19T09:51:58;8.73;;;4.60;;
69369;SDS011;56530;42.640;23.372;2022-08-19T09:54:24;5.65;;;4.35;;
69369;SDS011;56530;42.640;23.372;2022-08-19T09:56:49;6.30;;;5.03;;
69369;SDS011;56530;42.640;23.372;2022-08-19T09:59:15;5.53;;;4.70;;
69369;SDS011;56530;42.640;23.372;2022-08-19T10:01:41;6.10;;;5.18;;
69369;SDS011;56530;42.640;23.372;2022-08-19T10:04:06;14.25;;;5.10;;
69369;SDS011;56530;42.640;23.372;2022-08-19T10:06:33;6.10;;;5.00;;
69369;SDS011;56530;42.640;23.372;2022-08-19T10:09:00;10.60;;;4.60;;
69369;SDS011;56530;42.640;23.372;2022-08-19T10:11:27;5.30;;;4.72;;
69369;SDS011;56530;42.640;23.372;2022-08-19T10:13:53;7.43;;;4.90;;
69369;SDS011;56530;42.640;23.372;2022-08-19T10:16:19;6.22;;;4.65;;
69369;SDS011;56530;42.640;23.372;2022-08-19T10:18:47;5.00;;;4.28;;
69369;SDS011;56530;42.640;23.372;2022-08-19T10:21:22;6.20;;;4.20;;
69369;SDS011;56530;42.640;23.372;2022-08-19T10:23:49;5.97;;;4.70;;
69369;SDS011;56530;42.640;23.372;2022-08-19T10:26:18;5.07;;;4.18;;
69369;SDS011;56530;42.640;23.372;2022-08-19T10:28:45;8.85;;;4.63;;
69369;SDS011;56530;42.640;23.372;2022-08-19T10:31:12;5.03;;;4.60;;
69369;SDS011;56530;42.640;23.372;2022-08-19T10:33:39;11.73;;;5.55;;
69369;SDS011;56530;42.640;23.372;2022-08-19T10:36:09;7.07;;;4.75;;
69369;SDS011;56530;42.640;23.372;2022-08-19T10:38:37;6.07;;;4.78;;
69369;SDS011;56530;42.640;23.372;2022-08-19T10:41:13;7.28;;;6.65;;
69369;SDS011;56530;42.640;23.372;2022-08-19T10:43:41;6.53;;;5.25;;
69369;SDS011;56530;42.640;23.372;2022-08-19T10:46:07;6.95;;;5.00;;
69369;SDS011;56530;42.640;23.372;2022-08-19T10:48:34;4.03;;;3.72;;
69369;SDS011;56530;42.640;23.372;2022-08-19T10:51:00;4.80;;;4.30;;
69369;SDS011;56530;42.640;23.372;2022-08-19T10:53:45;6.57;;;4.82;;
69369;SDS011;56530;42.640;23.372;2022-08-19T10:56:10;7.70;;;5.00;;
69369;SDS011;56530;42.640;23.372;2022-08-19T10:58:54;7.43;;;5.18;;
69369;SDS011;56530;42.640;23.372;2022-08-19T11:01:21;5.88;;;5.20;;
69369;SDS011;56530;42.640;23.372;2022-08-19T11:03:47;6.18;;;4.95;;
69369;SDS011;56530;42.640;23.372;2022-08-19T11:06:12;7.75;;;5.00;;
69369;SDS011;56530;42.640;23.372;2022-08-19T11:08:38;6.78;;;4.28;;
69369;SDS011;56530;42.640;23.372;2022-08-19T11:11:04;7.40;;;5.03;;
69369;SDS011;56530;42.640;23.372;2022-08-19T11:13:32;5.32;;;4.78;;
69369;SDS011;56530;42.640;23.372;2022-08-19T11:16:06;7.53;;;5.05;;
69369;SDS011;56530;42.640;23.372;2022-08-19T11:18:37;5.85;;;4.80;;
69369;SDS011;56530;42.640;23.372;2022-08-19T11:21:05;6.13;;;4.55;;
69369;SDS011;56530;42.640;23.372;2022-08-19T11:23:35;5.60;;;4.50;;
69369;SDS011;56530;42.640;23.372;2022-08-19T11:26:00;7.43;;;4.88;;
69369;SDS011;56530;42.640;23.372;2022-08-19T11:28:26;5.43;;;4.68;;
69369;SDS011;56530;42.640;23.372;2022-08-19T11:30:52;5.07;;;4.53;;
69369;SDS011;56530;42.640;23.372;2022-08-19T11:33:17;10.25;;;4.97;;
69369;SDS011;56530;42.640;23.372;2022-08-19T11:35:43;5.72;;;5.25;;
69369;SDS011;56530;42.640;23.372;2022-08-19T11:38:09;6.05;;;4.90;;
69369;SDS011;56530;42.640;23.372;2022-08-19T11:40:36;6.88;;;5.00;;
69369;SDS011;56530;42.640;23.372;2022-08-19T11:43:02;5.13;;;4.63;;
69369;SDS011;56530;42.640;23.372;2022-08-19T11:45:28;5.88;;;4.68;;
69369;SDS011;56530;42.640;23.372;2022-08-19T11:47:54;9.07;;;5.13;;
69369;SDS011;56530;42.640;23.372;2022-08-19T11:50:20;7.85;;;5.05;;
69369;SDS011;56530;42.640;23.372;2022-08-19T11:52:46;5.45;;;4.70;;
69369;SDS011;56530;42.640;23.372;2022-08-19T11:55:12;5.78;;;5.20;;
69369;SDS011;56530;42.640;23.372;2022-08-19T11:57:38;7.07;;;4.82;;
69369;SDS011;56530;42.640;23.372;2022-08-19T12:00:04;6.07;;;4.80;;
69369;SDS011;56530;42.640;23.372;2022-08-19T12:02:32;9.65;;;5.43;;
69369;SDS011;56530;42.640;23.372;2022-08-19T12:04:58;6.13;;;5.28;;
69369;SDS011;56530;42.640;23.372;2022-08-19T12:07:27;6.93;;;5.45;;
69369;SDS011;56530;42.640;23.372;2022-08-19T12:09:54;5.85;;;5.25;;
69369;SDS011;56530;42.640;23.372;2022-08-19T12:12:19;7.57;;;5.53;;
69369;SDS011;56530;42.640;23.372;2022-08-19T12:14:45;8.25;;;5.15;;
69369;SDS011;56530;42.640;23.372;2022-08-19T12:17:11;5.85;;;4.85;;
69369;SDS011;56530;42.640;23.372;2022-08-19T12:19:38;5.60;;;5.07;;
69369;SDS011;56530;42.640;23.372;2022-08-19T12:22:04;6.72;;;4.85;;
69369;SDS011;56530;42.640;23.372;2022-08-19T12:24:31;10.40;;;5.32;;
69369;SDS011;56530;42.640;23.372;2022-08-19T12:26:57;6.25;;;5.57;;
69369;SDS011;56530;42.640;23.372;2022-08-19T12:29:24;5.82;;;5.28;;
69369;SDS011;56530;42.640;23.372;2022-08-19T12:31:54;11.35;;;6.13;;
69369;SDS011;56530;42.640;23.372;2022-08-19T12:34:26;7.53;;;6.15;;
69369;SDS011;56530;42.640;23.372;2022-08-19T12:36:55;11.38;;;5.30;;
69369;SDS011;56530;42.640;23.372;2022-08-19T12:39:23;9.23;;;5.13;;
69369;SDS011;56530;42.640;23.372;2022-08-19T12:41:49;11.18;;;5.57;;
69369;SDS011;56530;42.640;23.372;2022-08-19T12:44:15;6.60;;;6.00;;
69369;SDS011;56530;42.640;23.372;2022-08-19T12:46:40;10.40;;;5.18;;
69369;SDS011;56530;42.640;23.372;2022-08-19T12:49:06;7.28;;;5.20;;
69369;SDS011;56530;42.640;23.372;2022-08-19T12:51:31;8.18;;;5.45;;
69369;SDS011;56530;42.640;23.372;2022-08-19T12:53:57;12.68;;;5.55;;
69369;SDS011;56530;42.640;23.372;2022-08-19T12:56:22;7.00;;;4.75;;
69369;SDS011;56530;42.640;23.372;2022-08-19T12:58:48;8.73;;;5.13;;
69369;SDS011;56530;42.640;23.372;2022-08-19T13:01:15;8.55;;;5.40;;
69369;SDS011;56530;42.640;23.372;2022-08-19T13:03:41;5.60;;;5.10;;
69369;SDS011;56530;42.640;23.372;2022-08-19T13:06:07;6.10;;;5.50;;
69369;SDS011;56530;42.640;23.372;2022-08-19T13:08:33;7.13;;;5.82;;
69369;SDS011;56530;42.640;23.372;2022-08-19T13:11:06;6.78;;;5.25;;
69369;SDS011;56530;42.640;23.372;2022-08-19T13:13:37;6.15;;;5.20;;
69369;SDS011;56530;42.640;23.372;2022-08-19T13:16:05;7.30;;;5.47;;
69369;SDS011;56530;42.640;23.372;2022-08-19T13:18:31;5.55;;;5.00;;
69369;SDS011;56530;42.640;23.372;2022-08-19T13:21:01;7.07;;;5.90;;
69369;SDS011;56530;42.640;23.372;2022-08-19T13:23:28;9.05;;;6.15;;
69369;SDS011;56530;42.640;23.372;2022-08-19T13:25:57;7.70;;;5.53;;
69369;SDS011;56530;42.640;23.372;2022-08-19T13:28:23;12.88;;;5.65;;
69369;SDS011;56530;42.640;23.372;2022-08-19T13:30:49;7.90;;;5.25;;
69369;SDS011;56530;42.640;23.372;2022-08-19T13:33:33;6.50;;;5.40;;
69369;SDS011;56530;42.640;23.372;2022-08-19T13:35:59;7.65;;;5.32;;
69369;SDS011;56530;42.640;23.372;2022-08-19T13:38:26;8.32;;;5.28;;
69369;SDS011;56530;42.640;23.372;2022-08-19T13:40:53;10.35;;;5.53;;
69369;SDS011;56530;42.640;23.372;2022-08-19T13:43:19;6.25;;;5.18;;
69369;SDS011;56530;42.640;23.372;2022-08-19T13:45:47;5.50;;;5.10;;
69369;SDS011;56530;42.640;23.372;2022-08-19T13:48:13;7.13;;;5.72;;
69369;SDS011;56530;42.640;23.372;2022-08-19T13:50:39;8.65;;;5.65;;
69369;SDS011;56530;42.640;23.372;2022-08-19T13:53:08;5.82;;;5.25;;
69369;SDS011;56530;42.640;23.372;2022-08-19T13:55:36;6.75;;;5.10;;
69369;SDS011;56530;42.640;23.372;2022-08-19T13:58:03;10.65;;;5.90;;
69369;SDS011;56530;42.640;23.372;2022-08-19T14:00:32;6.55;;;5.45;;
69369;SDS011;56530;42.640;23.372;2022-08-19T14:03:00;7.13;;;5.63;;
69369;SDS011;56530;42.640;23.372;2022-08-19T14:05:26;6.00;;;5.35;;
69369;SDS011;56530;42.640;23.372;2022-08-19T14:07:53;7.43;;;5.25;;
69369;SDS011;56530;42.640;23.372;2022-08-19T14:10:19;6.43;;;5.88;;
69369;SDS011;56530;42.640;23.372;2022-08-19T14:12:45;10.00;;;5.75;;
69369;SDS011;56530;42.640;23.372;2022-08-19T14:15:11;7.32;;;5.85;;
69369;SDS011;56530;42.640;23.372;2022-08-19T14:17:38;6.07;;;5.45;;
69369;SDS011;56530;42.640;23.372;2022-08-19T14:20:04;9.55;;;5.68;;
69369;SDS011;56530;42.640;23.372;2022-08-19T14:22:33;8.48;;;5.78;;
69369;SDS011;56530;42.640;23.372;2022-08-19T14:24:59;6.53;;;5.25;;
69369;SDS011;56530;42.640;23.372;2022-08-19T14:27:25;8.15;;;5.47;;
69369;SDS011;56530;42.640;23.372;2022-08-19T14:29:53;12.32;;;5.90;;
69369;SDS011;56530;42.640;23.372;2022-08-19T14:32:20;7.05;;;6.28;;
69369;SDS011;56530;42.640;23.372;2022-08-19T14:34:46;5.95;;;5.50;;
69369;SDS011;56530;42.640;23.372;2022-08-19T14:37:12;8.60;;;5.10;;
69369;SDS011;56530;42.640;23.372;2022-08-19T14:39:41;10.52;;;6.85;;
69369;SDS011;56530;42.640;23.372;2022-08-19T14:42:07;7.50;;;5.35;;
69369;SDS011;56530;42.640;23.372;2022-08-19T14:44:33;10.80;;;5.63;;
69369;SDS011;56530;42.640;23.372;2022-08-19T14:46:59;6.40;;;5.18;;
69369;SDS011;56530;42.640;23.372;2022-08-19T14:49:24;7.38;;;6.00;;
69369;SDS011;56530;42.640;23.372;2022-08-19T14:51:50;15.93;;;5.65;;